CDT,Max TemperatureF,Mean TemperatureF,Min TemperatureF,Max Dew PointF,MeanDew PointF,Min DewpointF,Max Humidity, Mean Humidity, Min Humidity, Max Sea Level PressureIn, Mean Sea Level PressureIn, Min Sea Level PressureIn, Max VisibilityMiles, Mean VisibilityMiles, Min VisibilityMiles, Max Wind SpeedMPH, Mean Wind SpeedMPH, Max Gust SpeedMPH,PrecipitationIn, CloudCover, Events, WindDirDegrees
2010-10-1,61,51,41,48,45,41,96,76,55,30.21,30.10,30.06,10,10,10,13,4,17,0.03,4,Rain,6
2010-10-2,54,43,32,42,35,30,96,70,44,30.43,30.37,30.23,10,10,2,15,5,22,0.01,4,,8
2010-10-3,58,43,27,36,30,26,100,68,35,30.51,30.43,30.38,10,5,0,8,1,14,0.00,2,Fog,202
2010-10-4,63,46,28,38,31,27,100,67,34,30.43,30.37,30.30,10,5,0,12,3,16,0.00,1,Fog,196
2010-10-5,70,51,31,43,36,30,100,68,35,30.36,30.29,30.19,10,7,0,13,4,16,0.00,0,Fog,170
2010-10-6,73,58,42,50,42,37,100,66,31,30.20,30.09,30.05,10,10,10,18,5,24,0.00,0,,309
2010-10-7,75,59,42,43,39,36,82,56,29,30.16,30.09,30.04,10,10,10,14,5,20,0.00,0,,247
2010-10-8,83,62,41,56,47,39,96,65,34,30.03,29.93,29.86,10,10,9,15,4,20,0.00,0,,225
2010-10-9,81,66,50,56,53,50,100,71,42,29.97,29.92,29.89,10,9,2,12,4,15,0.00,0,,87
2010-10-10,81,64,47,54,51,48,96,66,36,29.93,29.88,29.81,10,7,0,7,2,13,0.00,0,Fog,49
2010-10-11,77,63,48,54,51,48,100,70,40,29.87,29.84,29.81,10,9,5,7,2,9,0.00,0,,70
2010-10-12,75,63,51,53,48,38,100,79,57,30.08,29.91,29.87,10,4,0,15,4,20,0.00,1,Fog,314
2010-10-13,65,52,39,39,33,26,85,55,24,30.19,30.14,30.09,10,10,10,20,5,26,0.00,0,,288
2010-10-14,69,54,39,35,32,28,76,50,24,30.13,29.96,29.79,10,10,10,24,9,32,0.00,0,,262
2010-10-15,61,48,35,39,36,32,89,66,42,30.15,30.08,29.98,10,10,10,10,3,13,0.00,0,,301
2010-10-16,68,53,38,39,34,26,85,56,26,30.10,29.99,29.92,10,10,10,17,6,23,0.00,0,,271
2010-10-17,60,48,35,32,28,23,76,51,25,30.19,30.12,30.06,10,10,10,15,5,20,0.00,2,,256
2010-10-18,57,47,37,35,29,26,70,51,32,30.13,30.07,30.00,10,10,10,13,5,17,0.00,3,,288
2010-10-19,59,47,34,39,33,30,92,66,39,30.00,29.92,29.77,10,10,10,17,6,21,0.00,0,,233
2010-10-20,61,49,37,38,35,32,85,61,36,29.83,29.71,29.62,10,10,10,24,8,35,T,1,,269
2010-10-21,52,42,32,32,27,21,82,56,30,30.04,29.97,29.85,10,10,10,16,6,22,0.00,1,,293
2010-10-22,66,45,24,34,28,25,92,59,26,30.06,29.98,29.88,10,7,0,15,4,18,0.00,0,Fog,187
2010-10-23,54,48,41,52,46,34,100,83,65,29.86,29.82,29.79,10,7,2,10,4,14,0.01,7,Rain,49
2010-10-24,65,58,51,61,54,50,100,89,78,29.78,29.60,29.49,10,7,2,13,5,16,0.20,8,Rain,115
2010-10-25,61,57,53,57,54,52,100,89,78,29.47,29.37,29.04,10,6,0,21,8,29,0.01,7,Fog-Rain,146
2010-10-26,63,52,41,61,50,33,97,84,70,29.03,28.76,28.59,10,8,3,37,21,54,0.32,8,Rain-Thunderstorm,196
2010-10-27,43,39,35,37,32,27,92,73,53,29.70,29.26,29.01,10,10,2,35,20,51,T,8,Rain-Snow,244
2010-10-28,41,35,28,34,29,24,85,72,59,30.32,30.05,29.69,10,10,10,23,13,33,T,6,,286
2010-10-29,50,37,23,30,25,21,92,64,36,30.34,30.14,29.83,10,10,10,14,6,16,0.00,0,,193
2010-10-30,54,41,27,37,31,26,92,67,41,30.09,29.86,29.71,10,10,10,17,5,24,0.00,0,,329
2010-10-31,49,36,22,31,25,21,100,71,42,30.36,30.23,30.12,10,7,0,8,1,12,0.00,1,Fog,72